createdAt,value
2023-06-29T00:01:56.476Z,12.29
2023-06-29T00:04:26.983Z,12.25
2023-06-29T00:06:55.762Z,12.19
2023-06-29T00:09:23.654Z,12.30
2023-06-29T00:11:50.784Z,12.34
2023-06-29T00:14:17.607Z,12.40
2023-06-29T00:16:44.712Z,12.48
2023-06-29T00:19:13.067Z,12.56
2023-06-29T00:21:40.291Z,12.63
2023-06-29T00:24:07.619Z,12.77
2023-06-29T00:26:34.473Z,12.87
2023-06-29T00:29:01.330Z,12.95
2023-06-29T00:31:28.310Z,13.02
2023-06-29T00:33:55.289Z,13.04
2023-06-29T00:36:22.339Z,13.07
2023-06-29T00:38:49.450Z,13.09
2023-06-29T00:41:16.338Z,13.10
2023-06-29T00:43:44.321Z,13.11
2023-06-29T00:46:14.177Z,13.10
2023-06-29T00:48:41.077Z,13.05
2023-06-29T00:51:08.309Z,12.96
2023-06-29T00:53:35.251Z,12.86
2023-06-29T00:56:03.192Z,12.73
2023-06-29T00:58:30.405Z,12.57
2023-06-29T01:00:57.388Z,12.44
2023-06-29T01:03:24.933Z,12.17
2023-06-29T01:05:57.579Z,12.15
2023-06-29T01:08:32.612Z,12.04
2023-06-29T01:11:02.707Z,12.02
2023-06-29T01:13:31.092Z,11.81
2023-06-29T01:15:59.684Z,12.03
2023-06-29T01:18:29.001Z,12.11
2023-06-29T01:20:56.564Z,12.14
2023-06-29T01:23:28.260Z,12.22
2023-06-29T01:25:56.526Z,12.32
2023-06-29T01:28:23.364Z,12.38
2023-06-29T01:30:51.259Z,12.48
2023-06-29T01:33:24.883Z,12.53
2023-06-29T01:36:01.610Z,12.61
2023-06-29T01:38:33.746Z,12.68
2023-06-29T01:41:02.530Z,12.74
2023-06-29T01:43:30.591Z,12.78
2023-06-29T01:45:58.539Z,12.79
2023-06-29T01:48:26.771Z,12.87
2023-06-29T01:50:53.849Z,12.87
2023-06-29T01:53:21.129Z,12.91
2023-06-29T01:55:47.890Z,12.93
2023-06-29T01:58:14.703Z,13.00
2023-06-29T02:00:41.510Z,13.01
2023-06-29T02:03:08.333Z,13.04
2023-06-29T02:05:35.271Z,13.05
2023-06-29T02:08:02.184Z,13.06
2023-06-29T02:10:29.036Z,13.08
2023-06-29T02:12:55.836Z,13.12
2023-06-29T02:15:22.768Z,13.10
2023-06-29T02:17:49.585Z,13.10
2023-06-29T02:20:18.644Z,13.12
2023-06-29T02:22:45.582Z,13.14
2023-06-29T02:25:12.970Z,13.13
2023-06-29T02:27:39.717Z,13.16
2023-06-29T02:30:07.270Z,13.16
2023-06-29T02:32:34.138Z,13.19
2023-06-29T02:35:00.916Z,13.20
2023-06-29T02:37:27.721Z,13.21
2023-06-29T02:39:54.475Z,13.24
2023-06-29T02:42:23.353Z,13.20
2023-06-29T02:44:50.143Z,13.25
2023-06-29T02:47:16.952Z,13.28
2023-06-29T02:49:43.715Z,13.25
2023-06-29T02:52:10.512Z,13.24
2023-06-29T02:54:37.275Z,13.20
2023-06-29T02:57:04.240Z,13.13
2023-06-29T02:59:31.230Z,13.09
2023-06-29T03:01:58.053Z,13.08
2023-06-29T03:04:24.820Z,13.08
2023-06-29T03:06:51.604Z,13.07
2023-06-29T03:09:18.430Z,13.05
2023-06-29T03:11:45.276Z,13.03
2023-06-29T03:14:12.107Z,13.04
2023-06-29T03:16:40.334Z,13.04
2023-06-29T03:19:07.190Z,13.04
2023-06-29T03:21:34.000Z,13.03
2023-06-29T03:24:00.885Z,13.06
2023-06-29T03:26:27.669Z,13.07
2023-06-29T03:28:54.453Z,13.07
2023-06-29T03:31:21.324Z,13.08
2023-06-29T03:33:48.176Z,13.08
2023-06-29T03:36:15.036Z,13.09
2023-06-29T03:38:41.794Z,13.13
2023-06-29T03:41:08.705Z,13.16
2023-06-29T03:43:35.460Z,13.19
2023-06-29T03:46:02.452Z,13.15
2023-06-29T03:48:29.304Z,13.14
2023-06-29T03:50:59.443Z,13.19
2023-06-29T03:53:26.215Z,13.15
2023-06-29T03:55:53.014Z,13.20
2023-06-29T03:58:19.939Z,13.19
2023-06-29T04:00:46.770Z,13.16
2023-06-29T04:03:13.783Z,13.14
2023-06-29T04:05:40.758Z,13.09
2023-06-29T04:08:08.241Z,13.07
2023-06-29T04:10:35.568Z,13.00
2023-06-29T04:13:02.642Z,12.94
2023-06-29T04:15:29.503Z,12.80
2023-06-29T04:17:56.368Z,12.67
2023-06-29T04:20:23.189Z,12.50
2023-06-29T04:22:49.999Z,12.41
2023-06-29T04:25:16.807Z,12.34
2023-06-29T04:27:44.265Z,12.32
2023-06-29T04:30:12.404Z,12.33
2023-06-29T04:32:40.133Z,12.35
2023-06-29T04:35:10.590Z,12.33
2023-06-29T04:37:41.958Z,12.36
2023-06-29T04:40:13.403Z,12.49
2023-06-29T04:42:49.553Z,12.44
2023-06-29T04:45:19.512Z,12.51
2023-06-29T04:47:53.297Z,12.56
2023-06-29T04:50:26.538Z,12.65
2023-06-29T04:52:55.096Z,12.84
2023-06-29T04:55:23.048Z,12.92
2023-06-29T04:57:49.863Z,13.05
2023-06-29T05:00:17.084Z,13.16
2023-06-29T05:02:44.079Z,13.30
2023-06-29T05:05:11.058Z,13.36
2023-06-29T05:07:39.224Z,13.48
2023-06-29T05:10:06.935Z,13.59
2023-06-29T05:12:34.171Z,13.63
2023-06-29T05:15:01.006Z,13.73
2023-06-29T05:17:27.758Z,13.82
2023-06-29T05:19:54.685Z,13.87
2023-06-29T05:22:21.517Z,13.92
2023-06-29T05:24:48.290Z,13.97
2023-06-29T05:27:15.050Z,14.01
2023-06-29T05:29:41.912Z,14.01
2023-06-29T05:32:09.025Z,14.04
2023-06-29T05:34:36.859Z,14.09
2023-06-29T05:37:04.010Z,14.18
2023-06-29T05:39:30.847Z,14.24
2023-06-29T05:41:57.643Z,14.29
2023-06-29T05:44:24.477Z,14.37
2023-06-29T05:46:51.326Z,14.44
2023-06-29T05:49:18.139Z,14.52
2023-06-29T05:51:44.985Z,14.57
2023-06-29T05:54:11.854Z,14.70
2023-06-29T05:56:38.762Z,14.78
2023-06-29T05:59:05.619Z,14.86
2023-06-29T06:01:32.659Z,15.04
2023-06-29T06:03:59.756Z,15.21
2023-06-29T06:06:26.659Z,15.36
2023-06-29T06:08:53.448Z,15.47
2023-06-29T06:11:20.189Z,15.58
2023-06-29T06:13:47.083Z,15.68
2023-06-29T06:16:13.944Z,15.70
2023-06-29T06:18:40.731Z,15.79
2023-06-29T06:21:07.738Z,15.81
2023-06-29T06:23:34.718Z,15.86
2023-06-29T06:26:02.313Z,15.95
2023-06-29T06:28:29.321Z,16.06
2023-06-29T06:30:56.269Z,16.16
2023-06-29T06:33:23.191Z,16.29
2023-06-29T06:35:50.445Z,16.36
2023-06-29T06:38:17.517Z,16.43
2023-06-29T06:40:44.546Z,16.47
2023-06-29T06:43:11.597Z,16.53
2023-06-29T06:45:38.395Z,16.58
2023-06-29T06:48:05.555Z,16.61
2023-06-29T06:50:32.493Z,16.52
2023-06-29T06:52:59.262Z,16.65
2023-06-29T06:55:27.260Z,16.71
2023-06-29T06:57:54.183Z,17.04
2023-06-29T07:00:21.469Z,17.91
2023-06-29T07:02:48.317Z,18.95
2023-06-29T07:05:16.259Z,20.01
2023-06-29T07:07:43.187Z,21.08
2023-06-29T07:10:10.806Z,21.95
2023-06-29T07:12:38.112Z,22.77
2023-06-29T07:15:05.840Z,23.29
2023-06-29T07:17:33.487Z,23.74
2023-06-29T07:24:59.892Z,25.04
2023-06-29T07:27:26.798Z,25.50
2023-06-29T07:29:53.610Z,25.52
2023-06-29T07:32:20.381Z,25.49
2023-06-29T07:34:47.228Z,25.69
2023-06-29T07:37:14.110Z,25.28
2023-06-29T07:39:40.890Z,24.90
2023-06-29T07:42:07.755Z,24.16
2023-06-29T07:44:34.599Z,24.17
2023-06-29T07:47:01.616Z,24.17
2023-06-29T07:49:28.455Z,23.82
2023-06-29T07:51:55.246Z,23.25
2023-06-29T07:54:22.015Z,22.67
2023-06-29T07:59:18.554Z,21.25
2023-06-29T08:01:49.724Z,20.85
2023-06-29T08:04:17.722Z,20.67
2023-06-29T08:07:07.682Z,20.50
2023-06-29T08:09:36.503Z,20.35
2023-06-29T08:12:03.628Z,20.30
2023-06-29T08:14:30.423Z,20.42
2023-06-29T08:16:57.314Z,20.51
2023-06-29T08:19:24.294Z,20.91
2023-06-29T08:21:56.660Z,21.56
2023-06-29T08:24:23.609Z,22.13
2023-06-29T08:26:50.454Z,22.10
2023-06-29T08:29:17.333Z,22.65
2023-06-29T08:31:44.465Z,23.25
2023-06-29T08:34:12.172Z,23.23
2023-06-29T08:36:39.057Z,22.64
2023-06-29T08:39:05.949Z,22.00
2023-06-29T08:41:32.779Z,21.19
2023-06-29T08:43:59.928Z,20.98
2023-06-29T08:46:29.004Z,20.66
2023-06-29T08:48:56.511Z,20.43
2023-06-29T08:51:23.544Z,20.23
2023-06-29T08:53:52.098Z,19.99
2023-06-29T08:56:20.400Z,20.05
2023-06-29T08:58:47.829Z,20.04
2023-06-29T09:01:14.671Z,20.06
2023-06-29T09:03:42.067Z,19.90
2023-06-29T09:06:10.489Z,19.98
2023-06-29T09:08:39.134Z,20.02
2023-06-29T09:11:06.140Z,20.09
2023-06-29T09:13:34.726Z,20.59
2023-06-29T09:16:03.035Z,22.07
2023-06-29T09:18:30.840Z,23.13
2023-06-29T09:20:58.111Z,23.30
2023-06-29T09:23:30.149Z,23.13
2023-06-29T09:25:58.106Z,23.16
2023-06-29T09:28:25.576Z,23.20
2023-06-29T09:30:52.633Z,23.05
2023-06-29T09:33:20.529Z,22.77
2023-06-29T09:35:53.286Z,22.66
2023-06-29T09:38:21.713Z,22.58
2023-06-29T09:40:53.741Z,22.54
2023-06-29T09:43:23.354Z,22.92
2023-06-29T09:45:53.020Z,23.16
2023-06-29T09:50:56.118Z,23.47
2023-06-29T09:53:34.002Z,23.25
2023-06-29T09:56:03.347Z,22.93
2023-06-29T09:58:31.418Z,22.67
2023-06-29T10:01:01.254Z,22.01
2023-06-29T10:03:29.230Z,21.75
2023-06-29T10:06:04.668Z,21.42
2023-06-29T10:08:34.262Z,21.22
2023-06-29T10:11:03.941Z,21.39
2023-06-29T10:13:38.683Z,21.56
2023-06-29T10:16:10.224Z,21.46
2023-06-29T10:18:45.612Z,21.40
2023-06-29T10:21:12.638Z,21.00
2023-06-29T10:23:42.570Z,20.82
2023-06-29T10:26:10.747Z,20.71
2023-06-29T10:28:38.296Z,20.61
2023-06-29T10:31:05.229Z,20.68
2023-06-29T10:33:32.336Z,20.78
2023-06-29T10:36:01.281Z,20.91
2023-06-29T10:38:33.065Z,21.15
2023-06-29T10:40:59.958Z,21.79
2023-06-29T10:43:29.696Z,22.37
2023-06-29T10:45:56.468Z,22.74
2023-06-29T10:48:42.813Z,23.22
2023-06-29T10:51:12.950Z,23.67
2023-06-29T10:53:40.380Z,24.06
2023-06-29T10:56:33.397Z,24.19
2023-06-29T10:59:00.798Z,24.68
2023-06-29T11:01:28.057Z,24.42
2023-06-29T11:03:55.284Z,24.30
2023-06-29T11:06:33.509Z,24.49
2023-06-29T11:09:11.737Z,24.85
2023-06-29T11:11:39.575Z,25.46
2023-06-29T11:14:06.487Z,25.64
2023-06-29T11:16:34.838Z,25.40
2023-06-29T11:19:03.427Z,25.34
2023-06-29T11:21:30.444Z,25.22
2023-06-29T11:23:57.304Z,24.67
2023-06-29T11:26:24.709Z,24.57
2023-06-29T11:28:52.823Z,24.73
2023-06-29T11:31:21.255Z,24.96
2023-06-29T11:33:49.487Z,24.91
2023-06-29T11:36:16.825Z,25.04
2023-06-29T11:38:43.827Z,25.15
2023-06-29T11:41:10.993Z,25.00
2023-06-29T11:43:37.906Z,25.09
2023-06-29T11:46:04.951Z,25.06
2023-06-29T11:48:31.816Z,25.16
2023-06-29T11:51:01.418Z,25.47
2023-06-29T11:53:30.293Z,25.81
2023-06-29T11:55:57.826Z,25.70
2023-06-29T11:58:32.940Z,25.59
2023-06-29T12:00:59.793Z,25.27
2023-06-29T12:03:27.935Z,25.07
2023-06-29T12:05:59.231Z,25.22
2023-06-29T12:08:26.066Z,25.25
2023-06-29T12:10:52.946Z,25.08
2023-06-29T12:13:20.804Z,24.79
2023-06-29T12:18:17.657Z,24.85
2023-06-29T12:20:47.976Z,25.00
2023-06-29T12:23:15.931Z,24.85
2023-06-29T12:25:48.588Z,24.77
2023-06-29T12:28:16.177Z,25.27
2023-06-29T12:30:44.289Z,25.31
2023-06-29T12:33:13.591Z,25.76
2023-06-29T12:35:40.802Z,25.62
2023-06-29T12:38:07.870Z,25.08
2023-06-29T12:40:35.327Z,24.76
2023-06-29T12:43:02.442Z,24.49
2023-06-29T12:45:29.379Z,24.37
2023-06-29T12:47:56.460Z,24.13
2023-06-29T12:50:23.371Z,24.15
2023-06-29T12:52:50.201Z,24.37
2023-06-29T12:55:17.158Z,24.53
2023-06-29T12:57:45.482Z,24.41
2023-06-29T13:00:13.866Z,24.31
2023-06-29T13:02:41.110Z,24.28
2023-06-29T13:05:08.142Z,24.28
2023-06-29T13:07:37.092Z,23.97
2023-06-29T13:10:05.060Z,23.59
2023-06-29T13:12:32.488Z,23.19
2023-06-29T13:15:00.273Z,22.85
2023-06-29T13:17:27.485Z,22.64
2023-06-29T13:19:54.354Z,22.63
2023-06-29T13:22:24.261Z,22.59
2023-06-29T13:24:51.132Z,22.62
2023-06-29T13:27:18.192Z,22.79
2023-06-29T13:29:45.031Z,22.70
2023-06-29T13:32:11.897Z,22.79
2023-06-29T13:34:38.709Z,22.83
2023-06-29T13:37:05.864Z,22.68
2023-06-29T13:39:32.742Z,22.79
2023-06-29T13:41:59.753Z,22.95
2023-06-29T13:44:26.537Z,23.46
2023-06-29T13:46:53.374Z,23.28
2023-06-29T13:49:21.610Z,23.66
2023-06-29T13:51:49.662Z,24.07
2023-06-29T13:54:17.078Z,24.43
2023-06-29T13:56:44.521Z,24.55
2023-06-29T13:59:11.503Z,24.69
2023-06-29T14:01:40.838Z,24.53
2023-06-29T14:04:11.117Z,24.53
2023-06-29T14:06:44.328Z,24.34
2023-06-29T14:09:13.037Z,24.34
2023-06-29T14:11:40.792Z,24.24
2023-06-29T14:14:07.734Z,24.04
2023-06-29T14:16:35.805Z,23.71
2023-06-29T14:19:03.750Z,23.28
2023-06-29T14:21:31.252Z,23.01
2023-06-29T14:23:58.131Z,22.83
2023-06-29T14:26:24.960Z,22.95
2023-06-29T14:28:52.122Z,23.30
2023-06-29T14:31:19.627Z,23.71
2023-06-29T14:33:46.681Z,24.29
2023-06-29T14:36:14.019Z,24.67
2023-06-29T14:38:40.973Z,25.01
2023-06-29T14:41:07.847Z,25.14
2023-06-29T14:43:34.715Z,25.04
2023-06-29T14:46:01.628Z,24.85
2023-06-29T14:48:28.560Z,24.46
2023-06-29T14:50:56.641Z,24.60
2023-06-29T14:53:24.516Z,24.48
2023-06-29T14:56:04.183Z,24.49
2023-06-29T14:58:31.499Z,24.31
2023-06-29T15:00:58.647Z,24.11
2023-06-29T15:03:25.884Z,24.21
2023-06-29T15:05:52.866Z,24.38
2023-06-29T15:08:19.701Z,24.34
2023-06-29T15:10:46.525Z,24.55
2023-06-29T15:13:13.591Z,24.92
2023-06-29T15:15:40.356Z,25.14
2023-06-29T15:18:07.225Z,25.27
2023-06-29T15:20:35.610Z,25.25
2023-06-29T15:23:02.679Z,25.07
2023-06-29T15:25:29.618Z,24.56
2023-06-29T15:27:59.121Z,24.34
2023-06-29T15:30:26.090Z,24.06
2023-06-29T15:32:52.919Z,23.81
2023-06-29T15:35:19.865Z,23.77
2023-06-29T15:37:46.689Z,23.65
2023-06-29T15:40:14.225Z,23.74
2023-06-29T15:42:41.400Z,23.40
2023-06-29T15:45:08.575Z,23.46
2023-06-29T15:47:37.008Z,23.34
2023-06-29T15:50:06.070Z,23.28
2023-06-29T15:52:33.465Z,23.42
2023-06-29T15:55:00.590Z,23.64
2023-06-29T15:57:27.381Z,23.85
2023-06-29T15:59:54.280Z,23.95
2023-06-29T16:02:21.284Z,24.01
2023-06-29T16:04:48.195Z,23.70
2023-06-29T16:07:15.076Z,23.54
2023-06-29T16:09:41.956Z,23.39
2023-06-29T16:12:09.712Z,23.29
2023-06-29T16:14:36.717Z,23.26
2023-06-29T16:17:03.905Z,23.25
2023-06-29T16:19:30.798Z,23.21
2023-06-29T16:21:57.772Z,23.25
2023-06-29T16:24:24.592Z,23.36
2023-06-29T16:26:51.993Z,23.71
2023-06-29T16:29:19.060Z,23.82
2023-06-29T16:31:49.635Z,23.73
2023-06-29T16:34:16.532Z,23.63
2023-06-29T16:36:43.632Z,23.47
2023-06-29T16:39:10.620Z,23.53
2023-06-29T16:41:38.086Z,23.28
2023-06-29T16:44:05.018Z,23.41
2023-06-29T16:46:31.947Z,23.23
2023-06-29T16:49:00.102Z,23.25
2023-06-29T16:51:29.358Z,22.96
2023-06-29T16:53:57.130Z,22.88
2023-06-29T16:56:24.062Z,22.66
2023-06-29T16:58:51.024Z,22.43
2023-06-29T17:01:18.580Z,22.46
2023-06-29T17:03:45.614Z,22.52
2023-06-29T17:06:12.949Z,22.23
2023-06-29T17:08:41.241Z,22.25
2023-06-29T17:11:08.648Z,22.22
2023-06-29T17:13:35.677Z,22.10
2023-06-29T17:16:03.390Z,22.11
2023-06-29T17:18:30.401Z,22.04
2023-06-29T17:20:57.188Z,21.75
2023-06-29T17:23:24.049Z,21.81
2023-06-29T17:25:51.777Z,21.68
2023-06-29T17:28:19.970Z,21.58
2023-06-29T17:30:47.105Z,21.63
2023-06-29T17:33:15.101Z,21.66
2023-06-29T17:35:42.405Z,21.73
2023-06-29T17:38:09.899Z,21.64
2023-06-29T17:40:36.758Z,21.61
2023-06-29T17:43:03.695Z,21.57
2023-06-29T17:45:30.620Z,21.45
2023-06-29T17:47:57.476Z,21.48
2023-06-29T17:50:24.411Z,21.57
2023-06-29T17:52:51.760Z,21.57
2023-06-29T17:55:19.480Z,21.57
2023-06-29T17:57:46.306Z,21.49
2023-06-29T18:00:16.438Z,21.28
2023-06-29T18:02:43.665Z,21.21
2023-06-29T18:05:11.182Z,21.02
2023-06-29T18:07:38.704Z,20.80
2023-06-29T18:10:08.245Z,20.75
2023-06-29T18:12:36.606Z,20.66
2023-06-29T18:15:04.473Z,20.66
2023-06-29T18:17:31.419Z,20.67
2023-06-29T18:19:59.107Z,20.64
2023-06-29T18:22:26.296Z,20.54
2023-06-29T18:24:53.349Z,20.58
2023-06-29T18:27:20.237Z,20.58
2023-06-29T18:29:47.005Z,20.60
2023-06-29T18:32:13.912Z,20.56
2023-06-29T18:34:40.685Z,20.59
2023-06-29T18:37:07.696Z,20.57
2023-06-29T18:39:34.526Z,20.54
2023-06-29T18:42:01.343Z,20.46
2023-06-29T18:44:28.140Z,20.39
2023-06-29T18:47:11.344Z,20.35
2023-06-29T18:49:50.802Z,20.31
2023-06-29T18:52:20.056Z,20.21
2023-06-29T18:54:47.518Z,20.18
2023-06-29T18:57:14.392Z,20.12
2023-06-29T18:59:43.176Z,20.01
2023-06-29T19:02:10.762Z,19.91
2023-06-29T19:04:37.580Z,19.80
2023-06-29T19:07:04.808Z,19.75
2023-06-29T19:09:31.879Z,19.63
2023-06-29T19:12:00.715Z,19.53
2023-06-29T19:14:27.773Z,19.44
2023-06-29T19:16:57.743Z,19.30
2023-06-29T19:19:25.378Z,19.21
2023-06-29T19:21:53.083Z,19.05
2023-06-29T19:24:20.354Z,18.93
2023-06-29T19:26:47.389Z,18.77
2023-06-29T19:29:14.875Z,18.79
2023-06-29T19:31:43.743Z,18.79
2023-06-29T19:34:12.113Z,18.71
2023-06-29T19:36:39.636Z,18.65
2023-06-29T19:39:06.666Z,18.56
2023-06-29T19:41:33.691Z,18.48
2023-06-29T19:44:01.186Z,18.50
2023-06-29T19:46:28.247Z,18.46
2023-06-29T19:48:55.313Z,18.45
2023-06-29T19:51:22.349Z,18.35
2023-06-29T19:53:49.185Z,18.27
2023-06-29T19:56:16.125Z,18.14
2023-06-29T19:58:43.030Z,18.04
2023-06-29T20:01:09.901Z,17.98
2023-06-29T20:03:36.795Z,17.80
2023-06-29T20:06:04.195Z,17.63
2023-06-29T20:08:31.089Z,17.55
2023-06-29T20:10:57.882Z,17.52
2023-06-29T20:13:24.729Z,17.46
2023-06-29T20:15:51.796Z,17.41
2023-06-29T20:18:18.671Z,17.39
2023-06-29T20:20:45.499Z,17.36
2023-06-29T20:23:12.442Z,17.29
2023-06-29T20:25:39.348Z,17.26
2023-06-29T20:28:06.225Z,17.22
2023-06-29T20:30:33.332Z,17.17
2023-06-29T20:33:00.310Z,17.17
2023-06-29T20:35:27.374Z,17.15
2023-06-29T20:37:54.826Z,17.13
2023-06-29T20:40:21.848Z,17.07
2023-06-29T20:42:48.706Z,17.06
2023-06-29T20:45:15.611Z,17.04
2023-06-29T20:47:42.483Z,17.02
2023-06-29T20:50:09.611Z,17.02
2023-06-29T20:52:36.453Z,17.00
2023-06-29T20:55:03.548Z,16.92
2023-06-29T20:57:30.322Z,16.88
2023-06-29T20:59:57.193Z,16.91
2023-06-29T21:02:24.231Z,16.81
2023-06-29T21:04:51.292Z,16.79
2023-06-29T21:07:19.124Z,16.76
2023-06-29T21:09:46.166Z,16.77
2023-06-29T21:12:13.892Z,16.74
2023-06-29T21:14:41.170Z,16.69
2023-06-29T21:17:08.580Z,16.68
2023-06-29T21:19:35.549Z,16.70
2023-06-29T21:22:02.646Z,16.70
2023-06-29T21:24:29.967Z,16.69
2023-06-29T21:26:56.929Z,16.68
2023-06-29T21:29:34.481Z,16.70
2023-06-29T21:32:11.707Z,16.69
2023-06-29T21:34:39.520Z,16.68
2023-06-29T21:37:07.008Z,16.67
2023-06-29T21:39:33.949Z,16.63
2023-06-29T21:42:00.994Z,16.63
2023-06-29T21:44:27.836Z,16.61
2023-06-29T21:46:54.768Z,16.55
2023-06-29T21:49:21.924Z,16.53
2023-06-29T21:51:49.053Z,16.49
2023-06-29T21:54:15.835Z,16.44
2023-06-29T21:56:42.743Z,16.36
2023-06-29T21:59:09.554Z,16.39
2023-06-29T22:01:36.446Z,16.32
2023-06-29T22:04:03.446Z,16.21
2023-06-29T22:06:30.608Z,16.14
2023-06-29T22:08:57.576Z,16.08
2023-06-29T22:11:28.184Z,16.04
2023-06-29T22:13:55.434Z,16.01
2023-06-29T22:16:25.112Z,15.97
2023-06-29T22:18:52.311Z,16.00
2023-06-29T22:21:22.407Z,15.94
2023-06-29T22:23:53.499Z,15.92
2023-06-29T22:26:21.849Z,15.94
2023-06-29T22:28:48.994Z,15.90
2023-06-29T22:31:18.581Z,15.91
2023-06-29T22:33:46.492Z,15.87
2023-06-29T22:36:15.019Z,15.86
2023-06-29T22:38:42.500Z,15.87
2023-06-29T22:41:09.971Z,15.83
2023-06-29T22:43:37.182Z,15.81
2023-06-29T22:46:04.163Z,15.79
2023-06-29T22:48:31.028Z,15.76
2023-06-29T22:50:58.108Z,15.73
2023-06-29T22:53:25.039Z,15.72
2023-06-29T22:55:51.892Z,15.72
2023-06-29T22:58:25.718Z,15.69
2023-06-29T23:00:56.127Z,15.62
2023-06-29T23:03:23.767Z,15.67
2023-06-29T23:05:50.892Z,15.64
2023-06-29T23:08:17.915Z,15.66
2023-06-29T23:10:47.722Z,15.63
2023-06-29T23:13:17.856Z,15.60
2023-06-29T23:15:46.237Z,15.61
2023-06-29T23:18:14.028Z,15.62
2023-06-29T23:20:45.724Z,15.59
2023-06-29T23:23:16.597Z,15.57
2023-06-29T23:25:43.787Z,15.49
2023-06-29T23:28:11.110Z,15.55
2023-06-29T23:30:38.441Z,15.55
2023-06-29T23:33:05.406Z,15.53
2023-06-29T23:35:32.370Z,15.57
2023-06-29T23:37:59.179Z,15.56
2023-06-29T23:40:27.218Z,15.47
2023-06-29T23:42:54.700Z,15.49
2023-06-29T23:45:22.926Z,15.50
2023-06-29T23:47:50.406Z,15.49
2023-06-29T23:50:19.483Z,15.51
2023-06-29T23:52:46.581Z,15.44
2023-06-29T23:55:13.752Z,15.42
2023-06-29T23:57:42.174Z,15.39
